Time;durP1;ratioP1;P1;durP2;ratioP2;P2;SDS_P1;SDS_P2;PMS_P1;PMS_P2;Temp;Humidity;BMP_temperature;BMP_pressure;BME280_temperature;BME280_humidity;BME280_pressure;Samples;Min_cycle;Max_cycle;Signal;HPM_P1;HPM_P2
2024/02/05 00:00:40;;;;;;;0.43;0.30;;;;;;;;;;6315288;28;20023;-78
2024/02/05 00:03:40;;;;;;;0.73;0.43;;;;;;;;;;6323731;28;20039;-78
2024/02/05 00:06:40;;;;;;;0.60;0.50;;;;;;;;;;6333724;28;20526;-77
2024/02/05 00:09:41;;;;;;;1.53;0.60;;;;;;;;;;6331257;28;20411;-78
2024/02/05 00:12:42;;;;;;;0.77;0.50;;;;;;;;;;6320026;28;20049;-78
2024/02/05 00:15:43;;;;;;;0.55;0.40;;;;;;;;;;6312226;28;20520;-78
2024/02/05 00:18:43;;;;;;;0.40;0.40;;;;;;;;;;6310463;28;20044;-78
2024/02/05 00:21:43;;;;;;;0.30;0.30;;;;;;;;;;6295276;28;20071;-78
2024/02/05 00:24:43;;;;;;;0.57;0.40;;;;;;;;;;6312998;28;20110;-78
2024/02/05 00:27:44;;;;;;;0.40;0.40;;;;;;;;;;6340232;28;20066;-79
2024/02/05 00:30:44;;;;;;;0.20;0.20;;;;;;;;;;6322900;28;20016;-78
2024/02/05 00:33:45;;;;;;;0.20;0.20;;;;;;;;;;6310139;28;20476;-77
2024/02/05 00:36:45;;;;;;;;;;;;;;;;;;6309446;28;20020;-78
2024/02/05 00:39:46;;;;;;;0.10;0.10;;;;;;;;;;6311359;28;19916;-77
2024/02/05 00:42:46;;;;;;;0.20;0.20;;;;;;;;;;6312368;28;20035;-77
2024/02/05 00:45:46;;;;;;;1.27;0.40;;;;;;;;;;6308724;28;20020;-77
2024/02/05 00:48:47;;;;;;;0.33;0.33;;;;;;;;;;6308050;28;20016;-78
2024/02/05 00:51:47;;;;;;;0.37;0.30;;;;;;;;;;6307491;28;20119;-77
2024/02/05 00:54:47;;;;;;;0.23;0.23;;;;;;;;;;6301661;28;20099;-77
2024/02/05 00:57:47;;;;;;;0.43;0.30;;;;;;;;;;6301842;28;20020;-77
2024/02/05 01:00:48;;;;;;;0.20;0.20;;;;;;;;;;6309594;28;20099;-76
2024/02/05 01:03:48;;;;;;;0.40;0.30;;;;;;;;;;6312491;28;20590;-77
2024/02/05 01:06:48;;;;;;;0.30;0.30;;;;;;;;;;6304091;28;20037;-78
2024/02/05 01:09:48;;;;;;;0.30;0.30;;;;;;;;;;6308818;28;20028;-77
2024/02/05 01:12:49;;;;;;;0.30;0.30;;;;;;;;;;6316899;28;20086;-77
2024/02/05 01:15:49;;;;;;;0.40;0.30;;;;;;;;;;6306009;28;20461;-78
2024/02/05 01:18:49;;;;;;;0.43;0.20;;;;;;;;;;6306177;28;20427;-78
2024/02/05 01:21:50;;;;;;;0.30;0.30;;;;;;;;;;6303116;28;20105;-78
2024/02/05 01:24:50;;;;;;;0.30;0.20;;;;;;;;;;6301938;28;20036;-78
2024/02/05 01:27:50;;;;;;;0.40;0.30;;;;;;;;;;6304823;28;20021;-77
2024/02/05 01:30:50;;;;;;;0.20;0.20;;;;;;;;;;6299617;28;20028;-78
2024/02/05 01:33:51;;;;;;;1.10;0.40;;;;;;;;;;6313743;28;20020;-78
2024/02/05 01:36:51;;;;;;;0.40;0.23;;;;;;;;;;6300850;28;20028;-78
2024/02/05 01:39:51;;;;;;;1.47;0.50;;;;;;;;;;6299659;28;20024;-78
2024/02/05 01:42:51;;;;;;;0.30;0.30;;;;;;;;;;6303728;28;20059;-78
2024/02/05 01:45:52;;;;;;;0.20;0.20;;;;;;;;;;6301249;28;20055;-78
2024/02/05 01:49:03;;;;;;;0.27;0.27;;;;;;;;;;6305112;28;20473;-77
2024/02/05 01:52:07;;;;;;;0.30;0.20;;;;;;;;;;6303173;28;20031;-77
2024/02/05 01:55:10;;;;;;;1.30;0.38;;;;;;;;;;6298586;28;20032;-78
2024/02/05 01:58:10;;;;;;;0.30;0.30;;;;;;;;;;6303287;28;20024;-77
2024/02/05 02:01:11;;;;;;;0.50;0.30;;;;;;;;;;6304520;28;20032;-77
2024/02/05 02:04:11;;;;;;;0.30;0.30;;;;;;;;;;6291669;28;20488;-78
2024/02/05 02:07:14;;;;;;;0.30;0.30;;;;;;;;;;6321485;28;20020;-77
2024/02/05 02:10:15;;;;;;;0.10;0.10;;;;;;;;;;6319409;28;20361;-77
2024/02/05 02:13:15;;;;;;;0.30;0.30;;;;;;;;;;6325498;28;20082;-78
2024/02/05 02:16:21;;;;;;;0.20;0.20;;;;;;;;;;6349080;28;20132;-78
2024/02/05 02:19:37;;;;;;;0.40;0.30;;;;;;;;;;6347556;28;20034;-78
2024/02/05 02:22:45;;;;;;;0.30;0.30;;;;;;;;;;6347991;28;20025;-78
2024/02/05 02:25:50;;;;;;;1.30;0.22;;;;;;;;;;6343977;27;20138;-77
2024/02/05 02:28:50;;;;;;;0.60;0.30;;;;;;;;;;6348595;27;20032;-78
2024/02/05 02:31:55;;;;;;;0.33;0.33;;;;;;;;;;6348620;28;20019;-78
2024/02/05 02:34:58;;;;;;;0.25;0.25;;;;;;;;;;6346755;28;20033;-78
2024/02/05 02:38:00;;;;;;;0.40;0.30;;;;;;;;;;6346178;28;20024;-79
2024/02/05 02:41:02;;;;;;;0.25;0.20;;;;;;;;;;6349855;27;20023;-78
2024/02/05 02:44:02;;;;;;;0.20;0.20;;;;;;;;;;6347290;28;20026;-77
2024/02/05 02:47:04;;;;;;;0.65;0.30;;;;;;;;;;6341485;28;20247;-78
2024/02/05 02:50:04;;;;;;;;;;;;;;;;;;6339532;28;20409;-78
2024/02/05 02:53:04;;;;;;;0.20;0.20;;;;;;;;;;6341353;27;19907;-78
2024/02/05 02:56:05;;;;;;;0.23;0.20;;;;;;;;;;6347633;28;20027;-78
2024/02/05 02:59:06;;;;;;;0.75;0.40;;;;;;;;;;6347997;28;20012;-78
2024/02/05 03:02:06;;;;;;;0.60;0.30;;;;;;;;;;6329366;28;20085;-78
2024/02/05 03:05:07;;;;;;;0.53;0.30;;;;;;;;;;6336767;28;20019;-78
2024/02/05 03:08:07;;;;;;;2.03;0.40;;;;;;;;;;6346587;28;20099;-78
2024/02/05 03:11:07;;;;;;;0.57;0.30;;;;;;;;;;6338905;28;20472;-78
2024/02/05 03:14:08;;;;;;;0.30;0.27;;;;;;;;;;6358124;27;20050;-76
2024/02/05 03:17:08;;;;;;;0.27;0.27;;;;;;;;;;6357801;27;20106;-77
2024/02/05 03:20:08;;;;;;;0.53;0.37;;;;;;;;;;6346875;28;20019;-78
2024/02/05 03:23:09;;;;;;;0.53;0.37;;;;;;;;;;6353305;27;20029;-78
2024/02/05 03:26:10;;;;;;;0.35;0.35;;;;;;;;;;6370635;27;20037;-78
2024/02/05 03:29:10;;;;;;;0.30;0.30;;;;;;;;;;6373209;27;20035;-78
2024/02/05 03:32:10;;;;;;;0.33;0.30;;;;;;;;;;6373909;27;20316;-78
2024/02/05 03:35:12;;;;;;;0.73;0.60;;;;;;;;;;6354903;27;20424;-78
2024/02/05 03:38:12;;;;;;;0.38;0.22;;;;;;;;;;6354653;28;20019;-77
2024/02/05 03:41:13;;;;;;;0.37;0.37;;;;;;;;;;6372707;28;20019;-78
2024/02/05 03:44:13;;;;;;;3.17;0.50;;;;;;;;;;6350344;28;20050;-78
2024/02/05 03:47:13;;;;;;;0.33;0.33;;;;;;;;;;6362104;28;20116;-77
2024/02/05 03:50:14;;;;;;;0.30;0.30;;;;;;;;;;6361716;28;20023;-78
2024/02/05 03:53:14;;;;;;;0.37;0.33;;;;;;;;;;6368311;28;20525;-77
2024/02/05 03:56:18;;;;;;;0.20;0.20;;;;;;;;;;6367363;28;20019;-77
2024/02/05 03:59:18;;;;;;;0.28;0.25;;;;;;;;;;6372187;28;20474;-77
2024/02/05 04:02:18;;;;;;;0.27;0.27;;;;;;;;;;6355032;28;20024;-77
2024/02/05 04:05:19;;;;;;;0.23;0.20;;;;;;;;;;6351019;28;20026;-78
2024/02/05 04:08:19;;;;;;;0.30;0.20;;;;;;;;;;6348568;28;20371;-78
2024/02/05 04:11:19;;;;;;;0.30;0.30;;;;;;;;;;6345552;28;20027;-78
2024/02/05 04:14:20;;;;;;;0.20;0.20;;;;;;;;;;6350419;28;20054;-77
2024/02/05 04:17:20;;;;;;;0.87;0.20;;;;;;;;;;6342724;28;20028;-77
2024/02/05 04:20:21;;;;;;;0.60;0.30;;;;;;;;;;6339585;28;20065;-79
2024/02/05 04:23:22;;;;;;;0.50;0.40;;;;;;;;;;6348037;28;20491;-77
2024/02/05 04:26:22;;;;;;;0.13;0.13;;;;;;;;;;6345814;28;20080;-77
2024/02/05 04:29:24;;;;;;;0.50;0.30;;;;;;;;;;6348815;28;20035;-78
2024/02/05 04:32:25;;;;;;;0.80;0.30;;;;;;;;;;6348497;28;20031;-78
2024/02/05 04:35:25;;;;;;;0.40;0.40;;;;;;;;;;6328569;28;20019;-78
2024/02/05 04:38:26;;;;;;;1.27;0.50;;;;;;;;;;6340851;28;20016;-78
2024/02/05 04:41:26;;;;;;;0.30;0.30;;;;;;;;;;6346088;28;20023;-77
2024/02/05 04:44:26;;;;;;;0.30;0.30;;;;;;;;;;6348602;28;20492;-78
2024/02/05 04:47:27;;;;;;;0.40;0.40;;;;;;;;;;6349816;28;20082;-78
2024/02/05 04:50:27;;;;;;;0.20;0.20;;;;;;;;;;6349965;28;20008;-78
2024/02/05 04:53:27;;;;;;;0.40;0.30;;;;;;;;;;6352093;28;20011;-78
2024/02/05 04:56:27;;;;;;;1.27;0.40;;;;;;;;;;6350567;28;20099;-78
2024/02/05 04:59:28;;;;;;;0.33;0.20;;;;;;;;;;6351113;28;20084;-78
2024/02/05 05:02:28;;;;;;;0.30;0.30;;;;;;;;;;6351475;28;20406;-78
2024/02/05 05:05:28;;;;;;;0.40;0.30;;;;;;;;;;6348582;28;20031;-78
2024/02/05 05:08:28;;;;;;;0.27;0.23;;;;;;;;;;6348749;28;20024;-78
2024/02/05 05:11:29;;;;;;;0.87;0.37;;;;;;;;;;6351664;28;20024;-78
2024/02/05 05:14:29;;;;;;;0.20;0.20;;;;;;;;;;6328172;28;20043;-78
2024/02/05 05:17:29;;;;;;;0.40;0.30;;;;;;;;;;6327389;28;20019;-78
2024/02/05 05:20:29;;;;;;;0.40;0.40;;;;;;;;;;6334696;28;20031;-78
2024/02/05 05:23:30;;;;;;;0.50;0.40;;;;;;;;;;6342915;28;20475;-78
2024/02/05 05:26:30;;;;;;;1.00;0.50;;;;;;;;;;6349075;28;20445;-78
2024/02/05 05:29:30;;;;;;;0.50;0.30;;;;;;;;;;6351014;28;20379;-78
2024/02/05 05:32:30;;;;;;;0.57;0.40;;;;;;;;;;6337927;28;20027;-78
2024/02/05 05:35:31;;;;;;;0.73;0.47;;;;;;;;;;6335346;28;20032;-78
2024/02/05 05:38:31;;;;;;;1.60;0.50;;;;;;;;;;6332860;28;20026;-78
2024/02/05 05:41:31;;;;;;;0.50;0.43;;;;;;;;;;6347695;28;20043;-78
2024/02/05 05:44:31;;;;;;;0.80;0.40;;;;;;;;;;6349767;28;20027;-77
2024/02/05 05:47:32;;;;;;;0.43;0.37;;;;;;;;;;6349632;28;20068;-78
2024/02/05 05:50:33;;;;;;;0.90;0.50;;;;;;;;;;6346814;28;20028;-79
2024/02/05 05:53:33;;;;;;;0.40;0.40;;;;;;;;;;6347601;28;20118;-78
2024/02/05 05:56:34;;;;;;;0.60;0.47;;;;;;;;;;6349126;28;20024;-78
2024/02/05 05:59:35;;;;;;;1.27;0.53;;;;;;;;;;6350198;28;20118;-78
2024/02/05 06:02:35;;;;;;;;;;;;;;;;;;6350036;28;20016;-78
2024/02/05 06:05:35;;;;;;;0.17;0.17;;;;;;;;;;6346596;28;19926;-78
2024/02/05 06:08:36;;;;;;;0.20;0.20;;;;;;;;;;6347319;28;20027;-78
2024/02/05 06:11:36;;;;;;;0.37;0.30;;;;;;;;;;6327945;28;20023;-78
2024/02/05 06:14:36;;;;;;;0.45;0.45;;;;;;;;;;6321384;28;20059;-77
2024/02/05 06:17:38;;;;;;;0.40;0.40;;;;;;;;;;6324519;28;20070;-78
2024/02/05 06:20:38;;;;;;;0.20;0.20;;;;;;;;;;6321872;28;20503;-78
2024/02/05 06:23:38;;;;;;;0.23;0.20;;;;;;;;;;6339109;28;20031;-77
2024/02/05 06:26:38;;;;;;;0.30;0.20;;;;;;;;;;6315495;28;20090;-78
2024/02/05 06:29:39;;;;;;;0.20;0.20;;;;;;;;;;6332766;28;20110;-77
2024/02/05 06:32:39;;;;;;;1.77;0.53;;;;;;;;;;6316188;28;20033;-78
2024/02/05 06:35:39;;;;;;;0.73;0.53;;;;;;;;;;6280687;28;20024;-78
2024/02/05 06:38:40;;;;;;;0.30;0.30;;;;;;;;;;6291921;28;20531;-78
2024/02/05 06:41:40;;;;;;;0.38;0.35;;;;;;;;;;6322398;28;20032;-78
2024/02/05 06:44:45;;;;;;;0.20;0.20;;;;;;;;;;6321461;28;20024;-78
2024/02/05 06:47:45;;;;;;;0.20;0.20;;;;;;;;;;6322440;28;20028;-78
2024/02/05 06:50:45;;;;;;;0.40;0.30;;;;;;;;;;6323851;28;20480;-78
2024/02/05 06:53:45;;;;;;;0.20;0.20;;;;;;;;;;6324759;28;20024;-78
2024/02/05 06:56:46;;;;;;;0.23;0.20;;;;;;;;;;6306686;28;20024;-78
2024/02/05 06:59:46;;;;;;;0.10;0.10;;;;;;;;;;6328260;28;20062;-78
2024/02/05 07:02:47;;;;;;;0.70;0.27;;;;;;;;;;6336902;28;20456;-79
2024/02/05 07:05:47;;;;;;;0.53;0.20;;;;;;;;;;6320924;28;20372;-79
2024/02/05 07:08:47;;;;;;;0.20;0.10;;;;;;;;;;6338468;28;20020;-79
2024/02/05 07:11:47;;;;;;;0.20;0.20;;;;;;;;;;6323238;28;20024;-79
2024/02/05 07:14:48;;;;;;;0.13;0.13;;;;;;;;;;6297730;28;20037;-79
2024/02/05 07:17:49;;;;;;;0.32;0.20;;;;;;;;;;6280036;28;20047;-80
2024/02/05 07:20:50;;;;;;;0.30;0.13;;;;;;;;;;6295101;28;20409;-83
2024/02/05 07:23:50;;;;;;;0.20;0.20;;;;;;;;;;6312301;28;20103;-82
2024/02/05 07:26:51;;;;;;;0.20;0.20;;;;;;;;;;6304282;28;20421;-81
2024/02/05 07:29:51;;;;;;;1.02;0.85;;;;;;;;;;6277063;28;20044;-81
2024/02/05 07:32:51;;;;;;;0.50;0.40;;;;;;;;;;6295115;28;20515;-81
2024/02/05 07:35:52;;;;;;;0.53;0.33;;;;;;;;;;6295024;28;20020;-81
2024/02/05 07:38:52;;;;;;;0.20;0.20;;;;;;;;;;6292962;28;20037;-81
2024/02/05 07:41:52;;;;;;;0.10;0.10;;;;;;;;;;6280854;28;20029;-81
2024/02/05 07:44:53;;;;;;;0.10;0.10;;;;;;;;;;6265922;28;20033;-81
2024/02/05 07:47:53;;;;;;;0.20;0.20;;;;;;;;;;6278802;28;20025;-81
2024/02/05 07:50:53;;;;;;;0.87;0.20;;;;;;;;;;6268259;28;20028;-81
2024/02/05 07:53:54;;;;;;;0.28;0.10;;;;;;;;;;6276121;28;20083;-79
2024/02/05 07:56:56;;;;;;;0.20;0.10;;;;;;;;;;6264932;28;20043;-81
2024/02/05 07:59:57;;;;;;;0.10;0.10;;;;;;;;;;6271359;28;20075;-82
2024/02/05 08:02:58;;;;;;;1.27;0.20;;;;;;;;;;6276302;28;20043;-80
2024/02/05 08:05:59;;;;;;;0.10;0.10;;;;;;;;;;6301385;28;20485;-81
2024/02/05 08:08:59;;;;;;;;;;;;;;;;;;6296357;28;20028;-79
2024/02/05 08:11:59;;;;;;;0.10;0.10;;;;;;;;;;6297693;28;19908;-79
2024/02/05 08:15:00;;;;;;;0.20;0.20;;;;;;;;;;6370427;28;20035;-77
2024/02/05 08:18:00;;;;;;;0.20;0.20;;;;;;;;;;6369993;27;20043;-78
2024/02/05 08:21:01;;;;;;;0.30;0.10;;;;;;;;;;6370203;27;20296;-77
2024/02/05 08:24:01;;;;;;;0.10;0.10;;;;;;;;;;6375650;27;20479;-77
2024/02/05 08:27:01;;;;;;;0.43;0.10;;;;;;;;;;6370059;27;20106;-77
2024/02/05 08:30:02;;;;;;;0.10;0.10;;;;;;;;;;6371085;27;20468;-77
2024/02/05 08:33:02;;;;;;;0.20;0.20;;;;;;;;;;6376464;27;20134;-77
2024/02/05 08:36:03;;;;;;;0.40;0.20;;;;;;;;;;6356630;27;20030;-78
2024/02/05 08:39:03;;;;;;;0.10;0.10;;;;;;;;;;6355108;27;20026;-77
2024/02/05 08:42:03;;;;;;;0.10;0.10;;;;;;;;;;6369049;27;20015;-77
2024/02/05 08:45:05;;;;;;;1.10;0.20;;;;;;;;;;6359544;27;20035;-77
2024/02/05 08:48:05;;;;;;;;;;;;;;;;;;6373991;27;20451;-77
2024/02/05 08:51:05;;;;;;;0.10;0.10;;;;;;;;;;6370455;27;19953;-78
2024/02/05 08:54:05;;;;;;;0.13;0.13;;;;;;;;;;6376278;27;20026;-77
2024/02/05 08:57:06;;;;;;;0.27;0.10;;;;;;;;;;6376028;27;20030;-77
2024/02/05 09:00:09;;;;;;;0.10;0.10;;;;;;;;;;6376857;27;20034;-77
2024/02/05 09:03:10;;;;;;;0.10;0.10;;;;;;;;;;6374967;27;20035;-77
2024/02/05 09:06:10;;;;;;;0.10;0.10;;;;;;;;;;6373245;27;20032;-78
2024/02/05 09:09:11;;;;;;;0.10;0.10;;;;;;;;;;6377061;27;20031;-77
2024/02/05 09:12:11;;;;;;;0.10;0.10;;;;;;;;;;6377498;27;20066;-77
2024/02/05 09:15:11;;;;;;;0.10;0.10;;;;;;;;;;6360151;27;20023;-76
2024/02/05 09:18:11;;;;;;;0.73;0.47;;;;;;;;;;6361550;27;20024;-78
2024/02/05 09:21:11;;;;;;;0.30;0.27;;;;;;;;;;6373046;27;20026;-79
2024/02/05 09:24:12;;;;;;;0.30;0.20;;;;;;;;;;6359045;27;20023;-78
2024/02/05 09:27:12;;;;;;;0.10;0.10;;;;;;;;;;6377451;27;20042;-79
2024/02/05 09:30:12;;;;;;;0.30;0.20;;;;;;;;;;6376985;27;20024;-78
2024/02/05 09:33:13;;;;;;;0.20;0.20;;;;;;;;;;6376051;27;20054;-79
2024/02/05 09:36:13;;;;;;;0.10;0.10;;;;;;;;;;6382557;27;20083;-79
2024/02/05 09:39:14;;;;;;;0.30;0.10;;;;;;;;;;6374157;27;20106;-79
2024/02/05 09:42:14;;;;;;;0.30;0.10;;;;;;;;;;6346367;27;20110;-79
2024/02/05 09:45:16;;;;;;;0.50;0.20;;;;;;;;;;6375868;27;20049;-79
2024/02/05 09:48:16;;;;;;;0.10;0.10;;;;;;;;;;6360538;27;20110;-79
2024/02/05 09:51:17;;;;;;;0.38;0.17;;;;;;;;;;6365724;27;20032;-79
2024/02/05 09:54:18;;;;;;;2.17;0.20;;;;;;;;;;6358062;27;20061;-79
2024/02/05 09:57:22;;;;;;;0.43;0.30;;;;;;;;;;6371633;27;20455;-79
2024/02/05 10:00:22;;;;;;;1.35;0.20;;;;;;;;;;6363955;27;20011;-80
2024/02/05 10:03:24;;;;;;;0.27;0.20;;;;;;;;;;6372686;27;20584;-80
2024/02/05 10:06:26;;;;;;;0.35;0.20;;;;;;;;;;6359926;27;20035;-79
2024/02/05 10:09:26;;;;;;;0.20;0.20;;;;;;;;;;6375290;27;20415;-79
2024/02/05 10:12:27;;;;;;;0.20;0.20;;;;;;;;;;6361032;27;20071;-79
2024/02/05 10:15:27;;;;;;;0.20;0.10;;;;;;;;;;6288894;28;20024;-79
2024/02/05 10:18:28;;;;;;;0.20;0.20;;;;;;;;;;6321307;28;20020;-79
2024/02/05 10:21:28;;;;;;;0.40;0.20;;;;;;;;;;6322128;28;20024;-79
2024/02/05 10:24:28;;;;;;;0.97;0.50;;;;;;;;;;6321785;28;20024;-78
2024/02/05 10:27:29;;;;;;;0.93;0.27;;;;;;;;;;6323716;28;20028;-79
2024/02/05 10:30:30;;;;;;;2.23;1.00;;;;;;;;;;6306374;28;20417;-80
2024/02/05 10:33:30;;;;;;;1.23;0.98;;;;;;;;;;6322809;28;20016;-79
2024/02/05 10:36:30;;;;;;;1.10;0.60;;;;;;;;;;6322519;28;20055;-79
2024/02/05 10:39:31;;;;;;;0.90;0.50;;;;;;;;;;6321952;28;20024;-79
2024/02/05 10:42:32;;;;;;;1.30;0.40;;;;;;;;;;6323209;28;20012;-79
2024/02/05 10:45:34;;;;;;;0.60;0.40;;;;;;;;;;6321944;28;20064;-79
2024/02/05 10:48:34;;;;;;;0.40;0.40;;;;;;;;;;6321370;28;20035;-80
2024/02/05 10:51:39;;;;;;;0.67;0.40;;;;;;;;;;6287561;28;20031;-79
2024/02/05 10:54:40;;;;;;;1.90;0.77;;;;;;;;;;6316976;28;20012;-79
2024/02/05 10:57:40;;;;;;;0.95;0.80;;;;;;;;;;6303112;28;20050;-80
2024/02/05 11:00:41;;;;;;;0.50;0.47;;;;;;;;;;6323012;28;20019;-80
2024/02/05 11:03:44;;;;;;;0.77;0.50;;;;;;;;;;6311338;28;20059;-79
2024/02/05 11:06:49;;;;;;;0.80;0.30;;;;;;;;;;6302795;28;20051;-80
2024/02/05 11:09:50;;;;;;;3.80;0.50;;;;;;;;;;6323317;28;20028;-80
2024/02/05 11:12:54;;;;;;;0.73;0.40;;;;;;;;;;6308582;28;20527;-79
2024/02/05 11:15:55;;;;;;;0.60;0.32;;;;;;;;;;6311452;28;20036;-80
2024/02/05 11:18:56;;;;;;;0.70;0.20;;;;;;;;;;6301413;28;20487;-81
2024/02/05 11:21:58;;;;;;;0.80;0.50;;;;;;;;;;6321724;28;20023;-83
2024/02/05 11:24:58;;;;;;;0.40;0.30;;;;;;;;;;6319546;28;20024;-82
2024/02/05 11:27:59;;;;;;;0.50;0.30;;;;;;;;;;6315335;28;20052;-80
2024/02/05 11:31:02;;;;;;;0.52;0.35;;;;;;;;;;6300258;28;20449;-78
2024/02/05 11:34:03;;;;;;;0.30;0.20;;;;;;;;;;6320633;28;20028;-79
2024/02/05 11:37:13;;;;;;;0.40;0.40;;;;;;;;;;6302185;28;20028;-78
2024/02/05 11:40:25;;;;;;;0.75;0.40;;;;;;;;;;6323415;28;20024;-79
2024/02/05 11:43:26;;;;;;;0.50;0.30;;;;;;;;;;6315566;28;20049;-79
2024/02/05 11:46:27;;;;;;;0.20;0.20;;;;;;;;;;6321026;28;20028;-79
2024/02/05 11:49:33;;;;;;;1.25;0.38;;;;;;;;;;6315330;28;20103;-79
2024/02/05 11:52:38;;;;;;;1.35;0.40;;;;;;;;;;6322189;28;20035;-78
2024/02/05 11:55:39;;;;;;;0.98;0.38;;;;;;;;;;6317273;28;20028;-78
2024/02/05 11:58:42;;;;;;;1.43;0.33;;;;;;;;;;6310706;28;20066;-77
2024/02/05 12:01:43;;;;;;;0.25;0.25;;;;;;;;;;6327346;28;20544;-80
2024/02/05 12:04:43;;;;;;;0.28;0.22;;;;;;;;;;6325777;28;20032;-80
2024/02/05 12:07:44;;;;;;;0.50;0.30;;;;;;;;;;6304331;28;20353;-80
2024/02/05 12:10:45;;;;;;;;;;;;;;;;;;6326518;28;20377;-79
2024/02/05 12:13:54;;;;;;;0.35;0.20;;;;;;;;;;6338436;27;19919;-80
2024/02/05 12:16:55;;;;;;;0.20;0.20;;;;;;;;;;6379407;27;20061;-79
2024/02/05 12:19:59;;;;;;;0.53;0.33;;;;;;;;;;6377195;27;20023;-79
2024/02/05 12:23:04;;;;;;;0.57;0.28;;;;;;;;;;6369229;27;20023;-80
2024/02/05 12:26:04;;;;;;;1.15;0.70;;;;;;;;;;6366467;27;20035;-81
2024/02/05 12:29:05;;;;;;;0.85;0.60;;;;;;;;;;6376581;27;20020;-81
2024/02/05 12:32:06;;;;;;;0.90;0.40;;;;;;;;;;6377246;27;20031;-80
2024/02/05 12:35:06;;;;;;;;;;;;;;;;;;6375864;27;20021;-82
2024/02/05 12:38:07;;;;;;;2.30;0.30;;;;;;;;;;6376346;27;19903;-80
2024/02/05 12:41:07;;;;;;;0.40;0.22;;;;;;;;;;6376436;27;20023;-81
2024/02/05 12:44:08;;;;;;;1.47;0.40;;;;;;;;;;6356935;27;20035;-78
2024/02/05 12:47:10;;;;;;;0.63;0.30;;;;;;;;;;6376772;27;20779;-79
2024/02/05 12:50:10;;;;;;;0.73;0.20;;;;;;;;;;6370912;27;20085;-79
2024/02/05 12:53:11;;;;;;;0.70;0.20;;;;;;;;;;6360866;27;20011;-78
2024/02/05 12:56:12;;;;;;;0.82;0.38;;;;;;;;;;6376764;27;20455;-79
2024/02/05 12:59:12;;;;;;;0.30;0.20;;;;;;;;;;6377053;27;20487;-80
2024/02/05 13:02:16;;;;;;;0.73;0.20;;;;;;;;;;6373168;27;20387;-79
2024/02/05 13:05:16;;;;;;;0.30;0.25;;;;;;;;;;6370180;27;20098;-80
2024/02/05 13:08:17;;;;;;;0.65;0.20;;;;;;;;;;6355130;27;20083;-80
2024/02/05 13:11:18;;;;;;;1.65;0.38;;;;;;;;;;6376294;27;20027;-80
2024/02/05 13:14:18;;;;;;;1.35;0.35;;;;;;;;;;6376021;27;20047;-79
2024/02/05 13:17:18;;;;;;;0.50;0.40;;;;;;;;;;6374264;27;20027;-79
2024/02/05 13:20:19;;;;;;;0.57;0.40;;;;;;;;;;6373334;27;20417;-79
2024/02/05 13:23:19;;;;;;;0.47;0.30;;;;;;;;;;6375415;27;20467;-79
2024/02/05 13:26:20;;;;;;;0.70;0.20;;;;;;;;;;6354865;27;20030;-79
2024/02/05 13:29:22;;;;;;;1.70;0.30;;;;;;;;;;6375131;27;20098;-79
2024/02/05 13:32:22;;;;;;;0.30;0.20;;;;;;;;;;6375499;27;20030;-79
2024/02/05 13:35:22;;;;;;;0.77;0.27;;;;;;;;;;6372196;27;20084;-80
2024/02/05 13:38:23;;;;;;;0.50;0.40;;;;;;;;;;6366913;27;20019;-79
2024/02/05 13:41:24;;;;;;;0.73;0.30;;;;;;;;;;6332722;28;20039;-80
2024/02/05 13:44:24;;;;;;;0.23;0.23;;;;;;;;;;6356997;27;20490;-79
2024/02/05 13:47:24;;;;;;;1.43;0.60;;;;;;;;;;6376396;27;20096;-79
2024/02/05 13:50:25;;;;;;;0.80;0.50;;;;;;;;;;6371700;27;20015;-80
2024/02/05 13:53:25;;;;;;;0.77;0.50;;;;;;;;;;6372382;27;20111;-80
2024/02/05 13:56:25;;;;;;;1.23;0.43;;;;;;;;;;6358416;27;20108;-80
2024/02/05 13:59:26;;;;;;;0.40;0.30;;;;;;;;;;6357290;27;20046;-80
2024/02/05 14:02:27;;;;;;;1.25;0.35;;;;;;;;;;6373605;27;20019;-80
2024/02/05 14:05:28;;;;;;;0.55;0.40;;;;;;;;;;6370594;27;20480;-80
2024/02/05 14:08:30;;;;;;;0.77;0.30;;;;;;;;;;6374020;27;20027;-87
2024/02/05 14:11:30;;;;;;;0.20;0.20;;;;;;;;;;6376135;27;20027;-87
2024/02/05 14:14:35;;;;;;;0.33;0.33;;;;;;;;;;6350622;27;20048;-88
2024/02/05 14:17:36;;;;;;;0.55;0.30;;;;;;;;;;6349725;28;20023;-85
2024/02/05 14:20:36;;;;;;;1.43;0.80;;;;;;;;;;6341896;28;20035;-85
2024/02/05 14:23:36;;;;;;;0.70;0.53;;;;;;;;;;6348819;28;20024;-85
2024/02/05 14:26:36;;;;;;;0.90;0.57;;;;;;;;;;6345321;28;20031;-85
2024/02/05 14:29:40;;;;;;;0.53;0.33;;;;;;;;;;6340671;27;20016;-87
2024/02/05 14:32:40;;;;;;;0.47;0.30;;;;;;;;;;6335425;28;20036;-85
2024/02/05 14:35:41;;;;;;;0.87;0.30;;;;;;;;;;6345470;28;20117;-86
2024/02/05 14:38:41;;;;;;;1.00;0.40;;;;;;;;;;6338416;28;20070;-85
2024/02/05 14:41:42;;;;;;;0.90;0.20;;;;;;;;;;6341931;28;20016;-85
2024/02/05 14:44:42;;;;;;;;;;;;;;;;;;6348910;28;20059;-85
2024/02/05 14:47:44;;;;;;;1.23;0.20;;;;;;;;;;6342248;28;20016;-85
2024/02/05 14:50:44;;;;;;;0.52;0.30;;;;;;;;;;6343979;28;20649;-85
2024/02/05 14:53:45;;;;;;;0.57;0.20;;;;;;;;;;6338863;28;20077;-85
2024/02/05 14:56:45;;;;;;;0.57;0.27;;;;;;;;;;6327954;28;20449;-85
2024/02/05 14:59:45;;;;;;;1.93;0.40;;;;;;;;;;6347864;28;20011;-86
2024/02/05 15:02:45;;;;;;;1.73;0.40;;;;;;;;;;6328491;28;20031;-86
2024/02/05 15:05:46;;;;;;;0.93;0.27;;;;;;;;;;6333546;28;20091;-82
2024/02/05 15:08:46;;;;;;;2.00;0.30;;;;;;;;;;6344323;28;20131;-82
2024/02/05 15:11:47;;;;;;;0.57;0.40;;;;;;;;;;6338082;28;20016;-82
2024/02/05 15:14:47;;;;;;;1.13;0.50;;;;;;;;;;6301893;28;20079;-82
2024/02/05 15:17:48;;;;;;;1.20;0.30;;;;;;;;;;6321941;28;20032;-81
2024/02/05 15:20:48;;;;;;;0.67;0.30;;;;;;;;;;6321406;28;20115;-82
2024/02/05 15:23:48;;;;;;;0.93;0.30;;;;;;;;;;6322293;28;20071;-81
2024/02/05 15:26:48;;;;;;;2.30;1.37;;;;;;;;;;6319776;28;20060;-82
2024/02/05 15:29:49;;;;;;;1.50;1.00;;;;;;;;;;6323458;28;20023;-82
2024/02/05 15:32:51;;;;;;;2.07;0.57;;;;;;;;;;6321927;28;20109;-81
2024/02/05 15:35:51;;;;;;;1.45;0.40;;;;;;;;;;6320792;28;20081;-82
2024/02/05 15:38:52;;;;;;;0.33;0.33;;;;;;;;;;6322028;28;20020;-82
2024/02/05 15:41:52;;;;;;;0.63;0.37;;;;;;;;;;6322111;28;20032;-82
2024/02/05 15:44:52;;;;;;;0.47;0.37;;;;;;;;;;6313979;28;20021;-82
2024/02/05 15:47:52;;;;;;;0.63;0.40;;;;;;;;;;6318834;28;20115;-82
2024/02/05 15:50:53;;;;;;;0.90;0.40;;;;;;;;;;6319151;28;20016;-82
2024/02/05 15:53:53;;;;;;;0.57;0.30;;;;;;;;;;6307531;28;20020;-82
2024/02/05 15:56:54;;;;;;;0.63;0.20;;;;;;;;;;6306692;28;20047;-81
2024/02/05 15:59:54;;;;;;;0.53;0.30;;;;;;;;;;6321672;28;20039;-82
2024/02/05 16:02:54;;;;;;;1.13;0.40;;;;;;;;;;6321696;28;20131;-81
2024/02/05 16:05:54;;;;;;;0.30;0.30;;;;;;;;;;6316653;28;20120;-82
2024/02/05 16:08:55;;;;;;;0.40;0.30;;;;;;;;;;6309394;28;20086;-82
2024/02/05 16:11:55;;;;;;;1.27;0.30;;;;;;;;;;6309849;28;20031;-81
2024/02/05 16:14:55;;;;;;;1.00;0.40;;;;;;;;;;6301605;28;20027;-81
2024/02/05 16:17:56;;;;;;;1.37;0.30;;;;;;;;;;6309587;28;20028;-81
2024/02/05 16:20:56;;;;;;;1.80;0.40;;;;;;;;;;6320284;28;20024;-81
2024/02/05 16:23:56;;;;;;;1.20;0.50;;;;;;;;;;6335384;28;20472;-81
2024/02/05 16:26:56;;;;;;;2.87;0.53;;;;;;;;;;6335052;28;20019;-82
2024/02/05 16:29:57;;;;;;;1.57;0.60;;;;;;;;;;6346319;28;20391;-80
2024/02/05 16:32:57;;;;;;;1.23;0.30;;;;;;;;;;6346360;28;20019;-80
2024/02/05 16:35:57;;;;;;;0.67;0.37;;;;;;;;;;6345113;28;20031;-80
2024/02/05 16:38:57;;;;;;;1.47;0.50;;;;;;;;;;6346442;28;20516;-80
2024/02/05 16:41:58;;;;;;;0.33;0.33;;;;;;;;;;6330636;28;20453;-80
2024/02/05 16:44:58;;;;;;;1.27;0.47;;;;;;;;;;6324438;28;20472;-80
2024/02/05 16:48:01;;;;;;;1.13;0.50;;;;;;;;;;6325968;28;20483;-80
2024/02/05 16:51:01;;;;;;;1.13;0.30;;;;;;;;;;6306510;28;20079;-79
2024/02/05 16:54:02;;;;;;;1.03;0.47;;;;;;;;;;6312765;28;20074;-80
2024/02/05 16:57:03;;;;;;;2.78;0.50;;;;;;;;;;6326270;28;20461;-80
2024/02/05 17:00:03;;;;;;;2.40;0.70;;;;;;;;;;6325111;28;20024;-81
2024/02/05 17:03:04;;;;;;;1.83;0.70;;;;;;;;;;6325185;28;20008;-81
2024/02/05 17:06:04;;;;;;;1.17;0.67;;;;;;;;;;6324612;28;20040;-80
2024/02/05 17:09:06;;;;;;;0.90;0.45;;;;;;;;;;6317653;28;20034;-82
2024/02/05 17:12:07;;;;;;;1.20;0.47;;;;;;;;;;6310471;28;20051;-81
2024/02/05 17:15:08;;;;;;;1.77;0.40;;;;;;;;;;6319501;28;20020;-80
2024/02/05 17:18:08;;;;;;;2.30;0.43;;;;;;;;;;6327085;28;20074;-81
2024/02/05 17:21:08;;;;;;;0.40;0.33;;;;;;;;;;6325590;28;20020;-80
2024/02/05 17:24:09;;;;;;;1.50;0.53;;;;;;;;;;6326708;28;20020;-80
2024/02/05 17:27:09;;;;;;;1.02;0.40;;;;;;;;;;6306765;28;20101;-81
2024/02/05 17:30:10;;;;;;;1.00;0.43;;;;;;;;;;6307525;28;20031;-80
2024/02/05 17:33:10;;;;;;;2.60;0.60;;;;;;;;;;6335639;28;20029;-78
2024/02/05 17:36:10;;;;;;;1.40;0.47;;;;;;;;;;6325536;28;20031;-79
2024/02/05 17:39:10;;;;;;;1.10;0.50;;;;;;;;;;6324363;28;20073;-78
2024/02/05 17:42:11;;;;;;;1.60;0.50;;;;;;;;;;6322688;28;20020;-77
2024/02/05 17:45:12;;;;;;;1.23;0.50;;;;;;;;;;6342368;28;20502;-78
2024/02/05 17:48:13;;;;;;;;;;;;;;;;;;6330620;28;20553;-78
2024/02/05 17:51:13;;;;;;;0.93;0.40;;;;;;;;;;6322885;28;19938;-78
2024/02/05 17:54:14;;;;;;;0.98;0.50;;;;;;;;;;6322248;28;20576;-77
2024/02/05 17:57:14;;;;;;;2.20;1.27;;;;;;;;;;6324665;28;20036;-77
2024/02/05 18:00:14;;;;;;;1.83;1.17;;;;;;;;;;6331172;28;20066;-80
2024/02/05 18:03:15;;;;;;;2.25;0.70;;;;;;;;;;6311813;28;20495;-80
2024/02/05 18:06:22;;;;;;;1.40;0.80;;;;;;;;;;6329287;28;20036;-81